CDT,Max TemperatureF,Mean TemperatureF,Min TemperatureF,Max Dew PointF,MeanDew PointF,Min DewpointF,Max Humidity, Mean Humidity, Min Humidity, Max Sea Level PressureIn, Mean Sea Level PressureIn, Min Sea Level PressureIn, Max VisibilityMiles, Mean VisibilityMiles, Min VisibilityMiles, Max Wind SpeedMPH, Mean Wind SpeedMPH, Max Gust SpeedMPH,PrecipitationIn, CloudCover, Events, WindDirDegrees
2013-3-1,32,14,-5,1,-3,-11,77,51,36,30.40,30.35,30.28,10,10,10,14,5,18,0.00,0,,52
2013-3-2,30,8,-14,1,-9,-22,78,55,19,30.32,30.25,30.15,10,10,10,7,0,,0.00,0,,170
2013-3-3,30,10,-11,10,-1,-18,77,61,40,30.14,30.10,30.06,10,10,10,9,1,,0.00,1,,87
2013-3-4,26,18,10,18,13,5,85,69,54,30.10,30.08,30.06,10,10,10,18,9,28,0.00,3,,81
2013-3-5,24,20,17,19,14,7,86,71,50,30.24,30.15,30.06,10,7,1,20,11,26,0.00,4,Snow,63
2013-3-6,33,17,0,10,5,-6,85,58,32,30.31,30.28,30.23,10,9,3,8,1,,0.00,1,Snow,336
2013-3-7,30,12,-7,14,3,-15,86,65,44,30.38,30.34,30.31,10,10,10,8,2,,0.00,0,,89
2013-3-8,35,20,5,21,14,0,93,72,48,30.33,30.23,30.13,10,9,4,9,2,,0.00,0,,219
2013-3-9,30,24,19,28,26,18,93,91,86,30.12,29.88,29.73,10,3,0,13,3,17,0.35,7,Fog-Rain-Snow,72
2013-3-10,33,28,23,28,21,14,93,74,60,30.00,29.91,29.73,10,10,7,9,4,20,0.00,2,Rain,7
2013-3-11,28,24,19,16,13,10,80,65,47,29.94,29.77,29.70,10,9,4,8,4,17,0.00,4,Snow,17
2013-3-12,24,20,15,10,7,0,79,60,45,30.06,29.85,29.71,10,8,2,12,4,21,0.00,6,Snow,348
2013-3-13,39,18,-2,3,-2,-11,73,45,17,30.24,30.18,30.06,10,10,10,9,2,,0.00,0,,334
2013-3-14,39,17,-5,25,8,-11,78,60,31,30.18,30.05,29.91,10,10,10,14,2,,0.00,1,,232
2013-3-15,33,24,14,25,8,-6,86,57,23,30.01,29.97,29.91,10,8,2,13,6,17,0.03,3,Rain,44
2013-3-16,30,13,-5,9,-1,-15,85,56,29,30.18,30.02,29.97,10,8,2,12,4,23,0.00,4,Rain-Snow,328
2013-3-17,32,5,-22,12,-6,-33,77,60,39,30.24,30.13,29.90,10,10,5,13,3,18,0.00,2,,95
2013-3-18,28,24,19,23,15,3,86,71,43,29.89,29.60,29.45,10,4,0,12,7,,0.11,5,Rain-Snow,145
2013-3-19,28,19,10,14,2,-2,80,54,29,29.92,29.71,29.45,10,8,3,18,11,34,0.00,2,Snow,308
2013-3-20,24,15,6,0,-3,-4,72,51,28,30.05,29.98,29.92,10,10,4,15,7,22,0.00,1,Snow,319
2013-3-21,35,14,-7,9,0,-15,85,60,24,30.04,30.00,29.97,10,10,5,10,1,,0.00,0,Snow,172
2013-3-22,39,18,-2,18,7,-11,92,66,33,30.06,30.02,30.00,10,10,10,7,1,,0.00,0,,146
2013-3-23,37,22,6,19,15,1,92,72,41,30.13,30.11,30.06,10,10,10,9,1,9,0.00,2,,101
2013-3-24,30,22,12,19,15,7,93,69,47,30.12,30.06,30.01,10,10,7,10,2,10,0.00,4,Rain,63
2013-3-25,37,24,12,19,13,3,74,57,36,30.16,30.08,30.01,10,10,10,9,3,17,0.00,3,,10
2013-3-26,39,30,21,19,16,7,80,55,26,30.23,30.20,30.15,10,10,10,7,0,,0.00,8,,214
2013-3-27,48,32,17,19,12,1,74,48,16,30.28,30.26,30.24,10,10,10,10,2,,0.00,3,,170
2013-3-28,48,27,6,18,8,1,85,52,17,30.30,30.27,30.23,10,10,10,10,1,,0.00,0,,178
2013-3-29,51,30,10,18,12,5,85,52,21,30.25,30.17,30.04,10,10,10,15,2,18,0.00,1,,205
2013-3-30,57,42,26,36,24,12,93,58,18,30.03,29.81,29.71,10,7,1,8,1,,0.29,2,Rain,304
2013-3-31,37,28,19,23,11,-2,74,45,22,29.95,29.74,29.63,10,10,2,15,4,28,0.00,2,Snow,319